Time;durP1;ratioP1;P1;durP2;ratioP2;P2;SDS_P1;SDS_P2;PMS_P1;PMS_P2;Temp;Humidity;BMP_temperature;BMP_pressure;BME280_temperature;BME280_humidity;BME280_pressure;Samples;Min_cycle;Max_cycle;Signal;HPM_P1;HPM_P2
2022/04/27 00:01:29;;;;;;;;;22.33;18.67;;;;;;;;5054814;28;47551;-70
2022/04/27 00:03:54;;;;;;;;;18.00;17.33;;;;;;;;5054721;28;45341;-71
2022/04/27 00:06:20;;;;;;;;;24.67;20.67;;;;;;;;5055001;28;45231;-71
2022/04/27 00:08:45;;;;;;;;;17.67;17.67;;;;;;;;5054762;28;45386;-71
2022/04/27 00:11:10;;;;;;;;;19.33;17.00;;;;;;;;5054897;28;45302;-70
2022/04/27 00:13:35;;;;;;;;;21.33;18.00;;;;;;;;5054630;28;45405;-70
2022/04/27 00:16:01;;;;;;;;;22.00;16.33;;;;;;;;5054772;28;45261;-70
2022/04/27 00:18:26;;;;;;;;;16.33;15.67;;;;;;;;5055119;28;45430;-71
2022/04/27 00:20:51;;;;;;;;;17.67;16.00;;;;;;;;5054624;28;46148;-70
2022/04/27 00:23:17;;;;;;;;;23.33;16.67;;;;;;;;5054700;28;45370;-71
2022/04/27 00:25:42;;;;;;;;;24.67;22.33;;;;;;;;5088991;27;45432;-71
2022/04/27 00:28:07;;;;;;;;;19.00;17.33;;;;;;;;5097707;27;45193;-70
2022/04/27 00:30:33;;;;;;;;;20.00;20.00;;;;;;;;5097596;27;45515;-71
2022/04/27 00:32:58;;;;;;;;;25.33;18.33;;;;;;;;5097334;27;45326;-71
2022/04/27 00:35:23;;;;;;;;;21.33;19.00;;;;;;;;5097403;27;45355;-71
2022/04/27 00:37:48;;;;;;;;;20.33;18.00;;;;;;;;5097492;27;45437;-71
2022/04/27 00:40:14;;;;;;;;;23.00;16.00;;;;;;;;5097389;27;46446;-71
2022/04/27 00:42:39;;;;;;;;;23.67;19.00;;;;;;;;5097492;27;45295;-71
2022/04/27 00:45:05;;;;;;;;;24.33;21.67;;;;;;;;5097533;27;45179;-71
2022/04/27 00:47:30;;;;;;;;;22.00;18.67;;;;;;;;5097609;27;45566;-72
2022/04/27 00:49:57;;;;;;;;;25.67;21.33;;;;;;;;5097177;27;45890;-71
2022/04/27 00:52:23;;;;;;;;;21.67;21.33;;;;;;;;5096885;27;45399;-73
2022/04/27 00:54:50;;;;;;;;;21.00;19.67;;;;;;;;5097246;27;45297;-70
2022/04/27 00:57:15;;;;;;;;;25.00;21.33;;;;;;;;5097384;27;45441;-71
2022/04/27 00:59:41;;;;;;;;;24.67;21.33;;;;;;;;5097055;27;45993;-70
2022/04/27 01:02:06;;;;;;;;;24.67;21.33;;;;;;;;5099811;27;45372;-71
2022/04/27 01:04:35;;;;;;;;;24.67;22.67;;;;;;;;5100800;27;45293;-71
2022/04/27 01:07:01;;;;;;;;;29.67;25.67;;;;;;;;5100889;27;45501;-71
2022/04/27 01:09:27;;;;;;;;;27.33;22.00;;;;;;;;5100214;27;46029;-71
2022/04/27 01:11:52;;;;;;;;;25.00;19.00;;;;;;;;5100651;27;45399;-71
2022/04/27 01:14:18;;;;;;;;;22.67;19.67;;;;;;;;5100137;27;45342;-71
2022/04/27 01:16:49;;;;;;;;;25.00;22.67;;;;;;;;5100725;27;45309;-70
2022/04/27 01:19:16;;;;;;;;;27.00;24.67;;;;;;;;5100248;27;46325;-70
2022/04/27 01:21:42;;;;;;;;;26.67;24.67;;;;;;;;5100180;27;45419;-71
2022/04/27 01:24:07;;;;;;;;;25.00;23.67;;;;;;;;5100437;27;45326;-71
2022/04/27 01:26:33;;;;;;;;;33.33;25.67;;;;;;;;5100490;27;45434;-73
2022/04/27 01:28:59;;;;;;;;;29.67;25.00;;;;;;;;5099834;27;46464;-71
2022/04/27 01:31:24;;;;;;;;;26.00;22.33;;;;;;;;5100385;27;45178;-71
2022/04/27 01:33:49;;;;;;;;;31.00;26.33;;;;;;;;5100154;27;45255;-71
2022/04/27 01:36:14;;;;;;;;;28.33;26.67;;;;;;;;5100401;27;45369;-71
2022/04/27 01:38:41;;;;;;;;;24.67;22.67;;;;;;;;5099894;27;45303;-71
2022/04/27 01:41:07;;;;;;;;;27.33;20.00;;;;;;;;5099986;27;45350;-71
2022/04/27 01:43:33;;;;;;;;;25.67;21.33;;;;;;;;5100126;27;45341;-70
2022/04/27 01:45:59;;;;;;;;;27.33;21.33;;;;;;;;5100106;27;45330;-71
2022/04/27 01:48:24;;;;;;;;;26.67;20.33;;;;;;;;5099787;27;45444;-71
2022/04/27 01:50:49;;;;;;;;;28.33;26.00;;;;;;;;5099886;27;45377;-70
2022/04/27 01:55:59;;;;;;;;;22.00;21.00;;;;;;;;5100109;27;45467;-72
2022/04/27 01:58:24;;;;;;;;;24.33;22.00;;;;;;;;5099867;27;46055;-70
2022/04/27 02:00:50;;;;;;;;;24.00;22.33;;;;;;;;5099611;27;45438;-71
2022/04/27 02:03:17;;;;;;;;;25.33;23.00;;;;;;;;5099832;27;45358;-70
2022/04/27 02:05:43;;;;;;;;;26.67;25.00;;;;;;;;5099889;27;45295;-72
2022/04/27 02:08:08;;;;;;;;;23.00;22.33;;;;;;;;5099260;27;46215;-71
2022/04/27 02:10:34;;;;;;;;;22.00;19.33;;;;;;;;5099529;27;45301;-71
2022/04/27 02:13:00;;;;;;;;;27.67;23.67;;;;;;;;5099613;27;45199;-70
2022/04/27 02:15:26;;;;;;;;;21.67;20.33;;;;;;;;5099536;27;45302;-71
2022/04/27 02:17:51;;;;;;;;;21.00;18.67;;;;;;;;5099078;27;45295;-71
2022/04/27 02:20:19;;;;;;;;;21.33;21.00;;;;;;;;5099198;27;45271;-71
2022/04/27 02:22:45;;;;;;;;;28.33;20.67;;;;;;;;5099506;27;45352;-73
2022/04/27 02:25:11;;;;;;;;;22.67;22.00;;;;;;;;5099360;27;45363;-71
2022/04/27 02:27:36;;;;;;;;;27.00;24.33;;;;;;;;5099089;27;45401;-73
2022/04/27 02:30:03;;;;;;;;;19.33;19.33;;;;;;;;5099273;27;45323;-71
2022/04/27 02:32:29;;;;;;;;;23.67;20.33;;;;;;;;5099185;27;45324;-73
2022/04/27 02:34:54;;;;;;;;;25.67;21.00;;;;;;;;5099420;27;45154;-73
2022/04/27 02:37:19;;;;;;;;;20.33;18.33;;;;;;;;5098981;27;46308;-71
2022/04/27 02:39:45;;;;;;;;;23.67;20.00;;;;;;;;5097743;27;45254;-70
2022/04/27 02:42:10;;;;;;;;;25.33;21.00;;;;;;;;5098986;27;45420;-70
2022/04/27 02:44:35;;;;;;;;;21.33;19.00;;;;;;;;5099076;27;45309;-70
2022/04/27 02:47:01;;;;;;;;;23.67;21.00;;;;;;;;5099050;27;45584;-70
2022/04/27 02:52:10;;;;;;;;;24.33;22.00;;;;;;;;5098024;27;45453;-70
2022/04/27 02:54:35;;;;;;;;;24.00;22.00;;;;;;;;5098374;27;45473;-72
2022/04/27 02:57:01;;;;;;;;;26.67;21.00;;;;;;;;5098359;27;46427;-72
2022/04/27 02:59:26;;;;;;;;;25.00;23.67;;;;;;;;5098869;27;45379;-73
2022/04/27 03:01:51;;;;;;;;;22.67;22.00;;;;;;;;5098969;27;45491;-73
2022/04/27 03:04:17;;;;;;;;;27.67;20.67;;;;;;;;5098976;27;45277;-70
2022/04/27 03:06:42;;;;;;;;;24.67;22.33;;;;;;;;5098761;27;46448;-71
2022/04/27 03:09:07;;;;;;;;;25.00;22.67;;;;;;;;5098239;27;45279;-71
2022/04/27 03:11:32;;;;;;;;;25.33;23.00;;;;;;;;5098469;27;45348;-70
2022/04/27 03:13:58;;;;;;;;;28.33;21.67;;;;;;;;5098935;27;45415;-71
2022/04/27 03:16:23;;;;;;;;;21.67;21.00;;;;;;;;5098441;27;45555;-70
2022/04/27 03:18:48;;;;;;;;;22.33;21.00;;;;;;;;5098852;27;45137;-70
2022/04/27 03:21:14;;;;;;;;;22.67;20.33;;;;;;;;5098592;27;45339;-71
2022/04/27 03:23:39;;;;;;;;;23.67;21.00;;;;;;;;5098351;27;45376;-71
2022/04/27 03:26:05;;;;;;;;;23.67;21.33;;;;;;;;5097981;27;45377;-73
2022/04/27 03:28:30;;;;;;;;;26.00;24.33;;;;;;;;5098264;27;45286;-71
2022/04/27 03:30:55;;;;;;;;;24.00;22.67;;;;;;;;5098760;27;45334;-70
2022/04/27 03:33:21;;;;;;;;;21.67;19.33;;;;;;;;5098341;27;45429;-70
2022/04/27 03:35:46;;;;;;;;;29.67;22.33;;;;;;;;5097961;27;45373;-71
2022/04/27 03:38:13;;;;;;;;;22.33;21.00;;;;;;;;5098194;27;45386;-70
2022/04/27 03:40:39;;;;;;;;;28.67;25.00;;;;;;;;5098123;27;45291;-71
2022/04/27 03:43:05;;;;;;;;;25.33;22.33;;;;;;;;5098508;27;45301;-71
2022/04/27 03:45:30;;;;;;;;;25.67;23.00;;;;;;;;5097852;27;45377;-71
2022/04/27 03:47:55;;;;;;;;;30.67;22.00;;;;;;;;5098230;27;45347;-70
2022/04/27 03:50:21;;;;;;;;;30.00;24.33;;;;;;;;5098010;27;45760;-70
2022/04/27 03:52:47;;;;;;;;;26.00;22.33;;;;;;;;5097917;27;45270;-70
2022/04/27 03:55:12;;;;;;;;;23.00;21.67;;;;;;;;5097785;27;46136;-73
2022/04/27 03:57:38;;;;;;;;;28.33;25.00;;;;;;;;5097919;27;45399;-73
2022/04/27 04:00:07;;;;;;;;;33.67;27.33;;;;;;;;5098233;27;45210;-73
2022/04/27 04:02:32;;;;;;;;;27.33;25.00;;;;;;;;5098294;27;45300;-74
2022/04/27 04:04:58;;;;;;;;;29.00;26.00;;;;;;;;5097328;27;46460;-74
2022/04/27 04:07:23;;;;;;;;;31.33;25.00;;;;;;;;5097965;27;45401;-73
2022/04/27 04:09:48;;;;;;;;;31.67;25.00;;;;;;;;5097555;27;45347;-73
2022/04/27 04:12:14;;;;;;;;;25.33;22.00;;;;;;;;5098317;27;45327;-73
2022/04/27 04:14:39;;;;;;;;;28.33;26.00;;;;;;;;5097676;27;46338;-72
2022/04/27 04:17:04;;;;;;;;;30.33;25.33;;;;;;;;5097458;27;45325;-73
2022/04/27 04:19:30;;;;;;;;;29.33;25.67;;;;;;;;5097810;27;45307;-73
2022/04/27 04:21:55;;;;;;;;;32.00;27.33;;;;;;;;5097851;27;45182;-72
2022/04/27 04:24:21;;;;;;;;;30.67;26.67;;;;;;;;5097430;27;46427;-72
2022/04/27 04:29:31;;;;;;;;;33.67;26.67;;;;;;;;5097330;27;45477;-73
2022/04/27 04:31:57;;;;;;;;;33.00;30.67;;;;;;;;5097535;27;45445;-71
2022/04/27 04:34:22;;;;;;;;;31.67;25.00;;;;;;;;5097206;27;46236;-73
2022/04/27 04:36:47;;;;;;;;;25.67;25.67;;;;;;;;5099900;27;45211;-73
2022/04/27 04:39:12;;;;;;;;;39.33;31.00;;;;;;;;5101247;27;45271;-74
2022/04/27 04:41:38;;;;;;;;;33.33;29.00;;;;;;;;5101107;27;46022;-75
2022/04/27 04:44:03;;;;;;;;;34.33;29.67;;;;;;;;5100828;27;46116;-75
2022/04/27 04:46:28;;;;;;;;;40.67;34.67;;;;;;;;5101148;27;45407;-73
2022/04/27 04:48:54;;;;;;;;;39.67;30.67;;;;;;;;5100856;27;45316;-73
2022/04/27 04:51:19;;;;;;;;;34.00;28.67;;;;;;;;5101036;27;45484;-73
2022/04/27 04:53:44;;;;;;;;;31.33;28.00;;;;;;;;5100456;27;46547;-73
2022/04/27 04:56:10;;;;;;;;;36.00;32.00;;;;;;;;5100535;27;45500;-73
2022/04/27 04:58:35;;;;;;;;;35.67;33.00;;;;;;;;5101015;27;45355;-74
2022/04/27 05:01:01;;;;;;;;;33.00;30.00;;;;;;;;5100624;27;45407;-72
2022/04/27 05:03:27;;;;;;;;;38.00;31.67;;;;;;;;5100595;27;45601;-72
2022/04/27 05:05:52;;;;;;;;;29.67;27.00;;;;;;;;5100341;27;45300;-70
2022/04/27 05:08:17;;;;;;;;;32.00;28.67;;;;;;;;5100634;27;45308;-73
2022/04/27 05:10:43;;;;;;;;;29.67;29.67;;;;;;;;5100693;27;45236;-73
2022/04/27 05:13:09;;;;;;;;;38.67;31.33;;;;;;;;5100147;27;45418;-73
2022/04/27 05:15:34;;;;;;;;;37.67;31.00;;;;;;;;5096429;27;45400;-73
2022/04/27 05:17:59;;;;;;;;;34.00;30.00;;;;;;;;5086278;27;45430;-73
2022/04/27 05:20:25;;;;;;;;;35.00;31.67;;;;;;;;5084875;27;45241;-73
2022/04/27 05:22:50;;;;;;;;;40.00;33.00;;;;;;;;5079972;28;46563;-75
2022/04/27 05:25:15;;;;;;;;;31.33;30.33;;;;;;;;5078054;27;45428;-72
2022/04/27 05:27:40;;;;;;;;;26.67;24.67;;;;;;;;5079478;28;45304;-72
2022/04/27 05:32:50;;;;;;;;;33.00;30.00;;;;;;;;5078823;28;45807;-73
2022/04/27 05:35:15;;;;;;;;;39.67;35.33;;;;;;;;5078344;27;45434;-73
2022/04/27 05:37:41;;;;;;;;;31.33;24.67;;;;;;;;5079712;28;45354;-74
2022/04/27 05:40:06;;;;;;;;;34.00;28.00;;;;;;;;5079376;27;45402;-74
2022/04/27 05:42:32;;;;;;;;;36.33;33.00;;;;;;;;5079332;27;45324;-74
2022/04/27 05:44:57;;;;;;;;;28.67;28.33;;;;;;;;5079129;27;45411;-75
2022/04/27 05:47:23;;;;;;;;;38.33;33.33;;;;;;;;5079091;27;45363;-73
2022/04/27 05:49:50;;;;;;;;;40.33;33.00;;;;;;;;5079254;27;45664;-71
2022/04/27 05:52:15;;;;;;;;;42.33;33.67;;;;;;;;5079040;28;46686;-73
2022/04/27 05:54:41;;;;;;;;;41.33;34.33;;;;;;;;5078765;28;45287;-75
2022/04/27 05:57:06;;;;;;;;;35.00;31.67;;;;;;;;5079022;28;45490;-74
2022/04/27 05:59:31;;;;;;;;;38.67;32.67;;;;;;;;5079393;27;45243;-76
2022/04/27 06:01:57;;;;;;;;;39.33;30.67;;;;;;;;5078946;27;45359;-74
2022/04/27 06:04:22;;;;;;;;;36.00;31.33;;;;;;;;5079021;28;45303;-74
2022/04/27 06:06:47;;;;;;;;;30.00;22.67;;;;;;;;5079196;27;45335;-75
2022/04/27 06:09:13;;;;;;;;;35.67;31.67;;;;;;;;5079386;27;45285;-75
2022/04/27 06:11:39;;;;;;;;;27.00;25.67;;;;;;;;5079135;28;46600;-75
2022/04/27 06:14:04;;;;;;;;;27.33;26.00;;;;;;;;5078701;28;45356;-74
2022/04/27 06:16:32;;;;;;;;;34.67;29.33;;;;;;;;5079034;27;45626;-74
2022/04/27 06:18:58;;;;;;;;;32.33;29.00;;;;;;;;5079158;27;45597;-74
2022/04/27 06:21:23;;;;;;;;;31.33;23.33;;;;;;;;5078285;27;45495;-74
2022/04/27 06:23:48;;;;;;;;;32.33;28.00;;;;;;;;5078831;27;45266;-74
2022/04/27 06:26:14;;;;;;;;;34.00;28.67;;;;;;;;5078734;27;45312;-74
2022/04/27 06:28:40;;;;;;;;;23.33;23.33;;;;;;;;5078899;27;45407;-74
2022/04/27 06:31:05;;;;;;;;;25.00;24.67;;;;;;;;5078481;27;45636;-75
2022/04/27 06:33:30;;;;;;;;;24.00;22.33;;;;;;;;5078625;28;45383;-75
2022/04/27 06:35:55;;;;;;;;;28.33;23.67;;;;;;;;5096051;27;45952;-73
2022/04/27 06:38:21;;;;;;;;;27.33;21.00;;;;;;;;5098949;27;45397;-75
2022/04/27 06:40:46;;;;;;;;;22.00;22.00;;;;;;;;5098809;27;45465;-74
2022/04/27 06:43:11;;;;;;;;;26.67;23.33;;;;;;;;5098338;27;45386;-74
2022/04/27 06:45:37;;;;;;;;;26.33;22.67;;;;;;;;5097520;27;45492;-74
2022/04/27 06:48:05;;;;;;;;;24.00;19.67;;;;;;;;5098579;27;45442;-75
2022/04/27 06:50:30;;;;;;;;;26.00;20.67;;;;;;;;5096156;27;45480;-74
2022/04/27 06:52:59;;;;;;;;;24.00;22.00;;;;;;;;5097538;27;45477;-75
2022/04/27 06:55:25;;;;;;;;;19.33;19.00;;;;;;;;5098469;27;45540;-73
2022/04/27 06:57:50;;;;;;;;;22.33;18.67;;;;;;;;5097549;27;45413;-74
2022/04/27 07:00:15;;;;;;;;;19.67;18.33;;;;;;;;5097716;27;46585;-74
2022/04/27 07:02:41;;;;;;;;;21.00;20.00;;;;;;;;5098480;27;45532;-76
2022/04/27 07:05:09;;;;;;;;;19.67;17.67;;;;;;;;5098029;27;45417;-76
2022/04/27 07:07:35;;;;;;;;;18.33;17.00;;;;;;;;5096928;27;45536;-74
2022/04/27 07:10:00;;;;;;;;;23.00;20.00;;;;;;;;5097243;27;45498;-74
2022/04/27 07:12:25;;;;;;;;;24.00;21.00;;;;;;;;5097902;27;45464;-74
2022/04/27 07:14:54;;;;;;;;;20.33;20.00;;;;;;;;5098057;27;45327;-76
2022/04/27 07:17:19;;;;;;;;;19.67;17.33;;;;;;;;5097189;27;45518;-78
2022/04/27 07:19:44;;;;;;;;;17.67;17.33;;;;;;;;5097500;27;46104;-76
2022/04/27 07:22:10;;;;;;;;;20.33;17.00;;;;;;;;5097615;27;45409;-74
2022/04/27 07:24:37;;;;;;;;;20.67;19.00;;;;;;;;5097737;27;45597;-76
2022/04/27 07:27:02;;;;;;;;;19.00;14.33;;;;;;;;5097777;27;45433;-75
2022/04/27 07:29:27;;;;;;;;;16.33;14.67;;;;;;;;5097552;27;46210;-72
2022/04/27 07:31:53;;;;;;;;;17.67;17.67;;;;;;;;5097015;27;45485;-71
2022/04/27 07:34:18;;;;;;;;;24.00;21.00;;;;;;;;5097479;27;45398;-74
2022/04/27 07:36:44;;;;;;;;;14.67;13.00;;;;;;;;5098064;27;45392;-75
2022/04/27 07:39:09;;;;;;;;;21.00;20.00;;;;;;;;5096923;27;45990;-74
2022/04/27 07:41:35;;;;;;;;;19.33;19.33;;;;;;;;5097354;27;45240;-74
2022/04/27 07:44:00;;;;;;;;;18.33;16.00;;;;;;;;5097876;27;45401;-72
2022/04/27 07:46:25;;;;;;;;;16.33;16.00;;;;;;;;5097704;27;45449;-71
2022/04/27 07:48:54;;;;;;;;;20.00;16.00;;;;;;;;5097388;27;45300;-72
2022/04/27 07:51:20;;;;;;;;;22.67;17.67;;;;;;;;5097484;27;45902;-71
2022/04/27 07:53:45;;;;;;;;;21.33;18.00;;;;;;;;5096896;27;45596;-71
2022/04/27 07:56:11;;;;;;;;;15.00;15.00;;;;;;;;5097530;27;45363;-73
2022/04/27 07:58:36;;;;;;;;;12.67;10.67;;;;;;;;5097367;27;45451;-73
2022/04/27 08:01:02;;;;;;;;;13.33;10.00;;;;;;;;5097268;27;45430;-72
2022/04/27 08:03:27;;;;;;;;;9.67;9.00;;;;;;;;5097520;27;45434;-76
2022/04/27 08:05:53;;;;;;;;;10.67;10.00;;;;;;;;5097481;27;45425;-75
2022/04/27 08:08:18;;;;;;;;;14.00;10.67;;;;;;;;5097329;27;46735;-75
2022/04/27 08:10:43;;;;;;;;;11.33;10.67;;;;;;;;5099179;27;45448;-74
2022/04/27 08:13:08;;;;;;;;;26.00;25.33;;;;;;;;5100714;27;45489;-72
2022/04/27 08:15:34;;;;;;;;;11.00;9.67;;;;;;;;5100543;27;45454;-74
2022/04/27 08:17:59;;;;;;;;;15.00;11.00;;;;;;;;5100647;27;45779;-75
2022/04/27 08:23:17;;;;;;;;;12.33;10.33;;;;;;;;5100668;27;45369;-72
2022/04/27 08:25:43;;;;;;;;;10.67;9.00;;;;;;;;5100858;27;45373;-73
2022/04/27 08:28:09;;;;;;;;;8.33;8.33;;;;;;;;5100205;27;45412;-72
2022/04/27 08:30:35;;;;;;;;;10.33;8.67;;;;;;;;5100629;27;45332;-70
2022/04/27 08:33:01;;;;;;;;;9.00;9.00;;;;;;;;5099622;27;45389;-72
2022/04/27 08:35:27;;;;;;;;;15.33;10.67;;;;;;;;5100577;27;45389;-70
2022/04/27 08:37:53;;;;;;;;;10.00;10.00;;;;;;;;5100286;27;45718;-70
2022/04/27 08:40:19;;;;;;;;;12.67;11.00;;;;;;;;5098759;27;45355;-71
2022/04/27 08:42:44;;;;;;;;;15.00;10.67;;;;;;;;5100532;27;45475;-71
2022/04/27 08:45:09;;;;;;;;;11.33;10.00;;;;;;;;5100735;27;45681;-70
2022/04/27 08:47:35;;;;;;;;;9.00;7.67;;;;;;;;5100358;27;46439;-73
2022/04/27 08:50:09;;;;;;;;;8.67;8.67;;;;;;;;5100284;27;45433;-73
2022/04/27 08:52:35;;;;;;;;;14.33;11.67;;;;;;;;5100406;27;45415;-71
2022/04/27 08:55:01;;;;;;;;;9.00;8.00;;;;;;;;5100190;27;45456;-71
2022/04/27 08:57:26;;;;;;;;;10.33;9.67;;;;;;;;5099944;27;46420;-71
2022/04/27 08:59:51;;;;;;;;;12.67;8.67;;;;;;;;5099632;27;45448;-72
2022/04/27 09:02:26;;;;;;;;;9.33;9.00;;;;;;;;5100024;27;45508;-71
2022/04/27 09:05:12;;;;;;;;;18.67;14.67;;;;;;;;5099992;27;45473;-73
2022/04/27 09:07:39;;;;;;;;;13.00;11.33;;;;;;;;5094910;27;46459;-74
2022/04/27 09:10:08;;;;;;;;;10.00;9.67;;;;;;;;5099828;27;45437;-71
2022/04/27 09:12:50;;;;;;;;;10.33;9.00;;;;;;;;5098756;27;45517;-70
2022/04/27 09:15:17;;;;;;;;;12.00;10.33;;;;;;;;5099618;27;45407;-71
2022/04/27 09:23:37;;;;;;;;;8.67;7.33;;;;;;;;5099128;27;45414;-70
2022/04/27 09:26:14;;;;;;;;;9.00;8.33;;;;;;;;5099947;27;45432;-71
2022/04/27 09:28:39;;;;;;;;;10.67;8.67;;;;;;;;5099487;27;46528;-71
2022/04/27 09:31:04;;;;;;;;;10.67;10.00;;;;;;;;5099301;27;45490;-71
2022/04/27 09:33:33;;;;;;;;;10.33;9.33;;;;;;;;5099779;27;45408;-72
2022/04/27 09:35:59;;;;;;;;;10.00;8.67;;;;;;;;5098938;27;45628;-72
2022/04/27 09:38:24;;;;;;;;;10.00;8.67;;;;;;;;5098838;27;46204;-72
2022/04/27 09:40:54;;;;;;;;;14.33;10.33;;;;;;;;5099539;27;45475;-72
2022/04/27 09:43:39;;;;;;;;;14.33;12.00;;;;;;;;5099111;27;45487;-71
2022/04/27 09:46:15;;;;;;;;;12.00;12.00;;;;;;;;5099599;27;45476;-72
2022/04/27 09:48:40;;;;;;;;;15.33;12.33;;;;;;;;5099056;27;45449;-71
2022/04/27 09:51:11;;;;;;;;;14.00;13.00;;;;;;;;5099376;27;45518;-71
2022/04/27 09:53:37;;;;;;;;;15.33;11.67;;;;;;;;5098866;27;45458;-70
2022/04/27 09:56:04;;;;;;;;;16.33;11.67;;;;;;;;5098711;27;45518;-73
2022/04/27 09:58:29;;;;;;;;;11.00;10.00;;;;;;;;5098888;27;45456;-73
2022/04/27 10:00:56;;;;;;;;;13.33;12.00;;;;;;;;5098428;27;45468;-72
2022/04/27 10:03:24;;;;;;;;;15.00;15.00;;;;;;;;5099265;27;45396;-72
2022/04/27 10:05:49;;;;;;;;;15.00;11.67;;;;;;;;5100505;27;45346;-73
2022/04/27 10:08:14;;;;;;;;;12.00;11.00;;;;;;;;5098776;27;46389;-73
2022/04/27 10:10:41;;;;;;;;;10.00;9.67;;;;;;;;5099141;27;45529;-73
2022/04/27 10:13:11;;;;;;;;;15.00;14.33;;;;;;;;5100112;27;45515;-74
2022/04/27 10:15:37;;;;;;;;;12.00;10.33;;;;;;;;5116750;27;45453;-72
2022/04/27 10:18:02;;;;;;;;;15.00;13.33;;;;;;;;5119446;27;46115;-74
2022/04/27 10:20:28;;;;;;;;;12.33;11.00;;;;;;;;5119329;27;45673;-74
2022/04/27 10:23:13;;;;;;;;;12.33;12.33;;;;;;;;5114051;27;45379;-73
2022/04/27 10:25:38;;;;;;;;;12.00;11.00;;;;;;;;5099230;27;45297;-73
2022/04/27 10:28:15;;;;;;;;;12.67;12.67;;;;;;;;5097741;27;46354;-73
2022/04/27 10:30:44;;;;;;;;;17.00;16.00;;;;;;;;5098202;27;45387;-73
2022/04/27 10:33:09;;;;;;;;;11.33;11.00;;;;;;;;5096847;27;45608;-73
2022/04/27 10:35:36;;;;;;;;;13.33;11.67;;;;;;;;5097977;27;45517;-73
2022/04/27 10:38:02;;;;;;;;;12.67;12.00;;;;;;;;5097033;27;46555;-74
2022/04/27 10:40:41;;;;;;;;;20.67;16.00;;;;;;;;5098085;27;45490;-73
2022/04/27 10:43:07;;;;;;;;;14.33;12.33;;;;;;;;5097760;27;45490;-73
2022/04/27 10:45:39;;;;;;;;;17.00;13.00;;;;;;;;5098686;27;45363;-73
2022/04/27 10:48:06;;;;;;;;;17.00;15.33;;;;;;;;5097384;27;45783;-72
2022/04/27 10:50:33;;;;;;;;;16.33;14.67;;;;;;;;5097721;27;45420;-73
2022/04/27 10:53:14;;;;;;;;;15.67;12.67;;;;;;;;5097155;27;45617;-72
2022/04/27 10:55:40;;;;;;;;;15.00;15.00;;;;;;;;5098176;27;45505;-73
2022/04/27 10:58:23;;;;;;;;;15.67;15.00;;;;;;;;5097463;27;45729;-74
2022/04/27 11:00:57;;;;;;;;;15.33;14.33;;;;;;;;5096310;27;45486;-75
2022/04/27 11:03:22;;;;;;;;;16.00;14.67;;;;;;;;5096752;27;45347;-75
2022/04/27 11:05:49;;;;;;;;;17.67;16.67;;;;;;;;5098135;27;45379;-73
2022/04/27 11:08:27;;;;;;;;;17.33;16.33;;;;;;;;5096950;27;45435;-74
2022/04/27 11:10:54;;;;;;;;;19.00;15.67;;;;;;;;5097407;27;45387;-73
2022/04/27 11:13:25;;;;;;;;;17.67;15.67;;;;;;;;5098153;27;45429;-72
2022/04/27 11:15:50;;;;;;;;;18.67;18.00;;;;;;;;5098130;27;45395;-75
2022/04/27 11:18:16;;;;;;;;;19.33;17.33;;;;;;;;5097835;27;46022;-72
2022/04/27 11:20:42;;;;;;;;;17.67;17.67;;;;;;;;5097453;27;45782;-74
2022/04/27 11:23:19;;;;;;;;;17.33;14.00;;;;;;;;5097419;27;45415;-75
2022/04/27 11:25:48;;;;;;;;;20.00;17.33;;;;;;;;5077589;27;45495;-75
2022/04/27 11:28:14;;;;;;;;;18.67;18.00;;;;;;;;5091088;27;45528;-76
2022/04/27 11:30:40;;;;;;;;;17.50;17.50;;;;;;;;5097423;27;45208;-74
2022/04/27 11:33:05;;;;;;;;;17.00;16.67;;;;;;;;5097688;27;45332;-73
2022/04/27 11:35:41;;;;;;;;;22.67;18.00;;;;;;;;5097292;27;45471;-75
2022/04/27 11:38:08;;;;;;;;;19.33;18.33;;;;;;;;5097351;27;46164;-74
2022/04/27 11:40:36;;;;;;;;;24.00;20.00;;;;;;;;5096293;27;45452;-75
2022/04/27 11:43:04;;;;;;;;;19.00;18.00;;;;;;;;5097480;27;45462;-74
2022/04/27 11:45:29;;;;;;;;;17.33;16.67;;;;;;;;5097218;27;45578;-72
2022/04/27 11:48:06;;;;;;;;;20.33;15.33;;;;;;;;5097535;27;45416;-71
2022/04/27 11:50:32;;;;;;;;;18.33;18.33;;;;;;;;5097004;27;45444;-72
2022/04/27 11:53:02;;;;;;;;;17.00;17.00;;;;;;;;5095946;27;45607;-73
2022/04/27 11:55:30;;;;;;;;;24.00;20.67;;;;;;;;5076454;27;45459;-72
2022/04/27 11:57:55;;;;;;;;;22.33;19.33;;;;;;;;5076219;27;45438;-73
2022/04/27 12:00:22;;;;;;;;;20.00;14.33;;;;;;;;5076713;27;45412;-74
2022/04/27 12:02:47;;;;;;;;;22.67;19.67;;;;;;;;5076792;27;45398;-73
2022/04/27 12:05:13;;;;;;;;;15.33;13.33;;;;;;;;5076624;27;45397;-73
2022/04/27 12:07:39;;;;;;;;;26.33;22.33;;;;;;;;5076710;27;45785;-73
2022/04/27 12:10:04;;;;;;;;;27.33;22.33;;;;;;;;5076813;27;45443;-73
2022/04/27 12:12:30;;;;;;;;;24.00;20.67;;;;;;;;5076498;27;45258;-72
2022/04/27 12:14:56;;;;;;;;;23.33;21.33;;;;;;;;5076561;27;45570;-73
2022/04/27 12:17:43;;;;;;;;;21.00;20.00;;;;;;;;5076229;27;45440;-74
2022/04/27 12:20:10;;;;;;;;;24.67;20.67;;;;;;;;5076803;27;45390;-73
2022/04/27 12:22:35;;;;;;;;;20.33;19.33;;;;;;;;5075471;27;45438;-76
2022/04/27 12:25:01;;;;;;;;;20.33;17.67;;;;;;;;5076661;27;45431;-74
2022/04/27 12:27:26;;;;;;;;;22.33;19.67;;;;;;;;5076603;27;45386;-73
2022/04/27 12:30:02;;;;;;;;;21.33;21.33;;;;;;;;5075665;27;46358;-76
2022/04/27 12:32:31;;;;;;;;;23.00;23.00;;;;;;;;5076843;27;45436;-73
2022/04/27 12:37:46;;;;;;;;;19.67;17.33;;;;;;;;5075992;28;45381;-73
2022/04/27 12:40:13;;;;;;;;;23.33;21.33;;;;;;;;5076220;27;45425;-72
2022/04/27 12:42:57;;;;;;;;;24.00;21.67;;;;;;;;5076407;27;45475;-71
2022/04/27 12:45:23;;;;;;;;;23.67;21.33;;;;;;;;5075463;27;45529;-71
2022/04/27 12:47:50;;;;;;;;;24.67;20.67;;;;;;;;5076089;27;46022;-72
2022/04/27 12:50:15;;;;;;;;;27.67;21.33;;;;;;;;5076462;27;45460;-71
2022/04/27 12:52:41;;;;;;;;;23.33;20.00;;;;;;;;5088441;27;45351;-70
2022/04/27 12:55:11;;;;;;;;;16.67;15.67;;;;;;;;5080781;27;45486;-72
2022/04/27 12:57:59;;;;;;;;;25.33;23.33;;;;;;;;5092738;27;45799;-71
2022/04/27 13:00:44;;;;;;;;;22.67;22.67;;;;;;;;5100153;27;45937;-71
2022/04/27 13:03:09;;;;;;;;;24.33;21.33;;;;;;;;5080216;27;45464;-72
2022/04/27 13:05:38;;;;;;;;;22.33;21.00;;;;;;;;5078713;28;45376;-72
2022/04/27 13:08:06;;;;;;;;;23.00;19.33;;;;;;;;5068273;28;45533;-72
2022/04/27 13:13:16;;;;;;;;;24.67;21.67;;;;;;;;5079421;28;45383;-71
2022/04/27 13:15:42;;;;;;;;;20.67;20.67;;;;;;;;5079547;27;45489;-71
2022/04/27 13:18:07;;;;;;;;;20.00;17.33;;;;;;;;5079187;28;45912;-72
2022/04/27 13:20:32;;;;;;;;;21.00;17.00;;;;;;;;5080317;27;45455;-72
2022/04/27 13:22:58;;;;;;;;;16.67;16.33;;;;;;;;5079310;27;45370;-72
2022/04/27 13:25:23;;;;;;;;;24.00;21.33;;;;;;;;5079380;28;45422;-71
2022/04/27 13:27:48;;;;;;;;;26.00;23.00;;;;;;;;5079074;28;45780;-72
2022/04/27 13:30:16;;;;;;;;;26.67;21.00;;;;;;;;5078848;28;45499;-72
2022/04/27 13:32:41;;;;;;;;;25.33;20.67;;;;;;;;5077940;27;45382;-71
2022/04/27 13:35:07;;;;;;;;;20.00;19.33;;;;;;;;5078244;27;45492;-71
2022/04/27 13:37:33;;;;;;;;;23.00;20.00;;;;;;;;5078556;27;45632;-72
2022/04/27 13:39:58;;;;;;;;;23.00;20.33;;;;;;;;5079042;27;45279;-72
2022/04/27 13:42:23;;;;;;;;;21.67;20.33;;;;;;;;5079109;27;45147;-71
2022/04/27 13:44:49;;;;;;;;;25.00;24.67;;;;;;;;5078889;27;45377;-71
2022/04/27 13:47:14;;;;;;;;;27.67;24.00;;;;;;;;5078534;27;45452;-73
2022/04/27 13:49:39;;;;;;;;;21.33;20.33;;;;;;;;5078953;27;45330;-73
2022/04/27 13:52:05;;;;;;;;;22.33;21.00;;;;;;;;5079012;28;45351;-73
2022/04/27 13:54:30;;;;;;;;;23.67;21.67;;;;;;;;5078949;27;45224;-72
2022/04/27 13:56:55;;;;;;;;;23.00;20.00;;;;;;;;5078359;27;46253;-73
2022/04/27 13:59:21;;;;;;;;;28.33;25.67;;;;;;;;5077526;28;45457;-72
2022/04/27 14:01:46;;;;;;;;;18.67;17.33;;;;;;;;5078180;28;45579;-72
2022/04/27 14:04:11;;;;;;;;;19.33;15.33;;;;;;;;5078657;27;45478;-72
2022/04/27 14:06:37;;;;;;;;;21.67;20.67;;;;;;;;5078580;27;45373;-72
2022/04/27 14:09:02;;;;;;;;;22.00;22.00;;;;;;;;5077124;28;45442;-73
2022/04/27 14:14:12;;;;;;;;;22.33;19.33;;;;;;;;5078696;28;45371;-72
2022/04/27 14:19:21;;;;;;;;;23.33;22.33;;;;;;;;5078335;28;45468;-72
2022/04/27 14:21:47;;;;;;;;;24.33;23.00;;;;;;;;5078718;27;45505;-72
2022/04/27 14:24:12;;;;;;;;;27.00;22.67;;;;;;;;5078194;27;45449;-72
2022/04/27 14:26:38;;;;;;;;;22.67;20.00;;;;;;;;5078252;27;45690;-74
2022/04/27 14:29:03;;;;;;;;;25.00;21.33;;;;;;;;5078292;27;45416;-76
2022/04/27 14:31:28;;;;;;;;;21.33;21.33;;;;;;;;5075968;27;45686;-71
2022/04/27 14:33:54;;;;;;;;;26.00;23.00;;;;;;;;5078400;28;45382;-71
2022/04/27 14:36:20;;;;;;;;;25.33;21.00;;;;;;;;5077940;27;45731;-72
2022/04/27 14:38:45;;;;;;;;;20.00;20.00;;;;;;;;5077904;27;45461;-72
2022/04/27 14:41:16;;;;;;;;;26.33;25.00;;;;;;;;5077891;28;45386;-72
2022/04/27 14:43:41;;;;;;;;;24.00;22.67;;;;;;;;5075778;27;45394;-72
2022/04/27 14:46:06;;;;;;;;;30.33;27.67;;;;;;;;5077206;27;46182;-73